Flight Track Log - Related Links

Times and Time Zones

All times are in EDT time to prevent confusion due to time zone crossing. See the AAL1459 flight status page for this flight to view local times or setup timezone preferences in your user account.

Time Position Orientation Groundspeed Altitude Reporting Facility
EDT Latitude Longitude Course Direction KTS MPH feet Rate Location/Type
Sat 06:29:39 PM 42.0000 -87.9833 270° West 179 206 3,200  Level Chicago TRACON
Sat 06:30:39 PM 41.9833 -88.0667 255° West 249 287 5,900 2,791 Climbing Chicago TRACON
Sat 06:31:00 PM 41.9667 -88.3517 270° West  Level FlightAware Approximate
Sat 06:31:48 PM 41.9767 -88.1678 265° West 249 287 9,200  Level Chicago Center
Sat 06:32:00 PM 41.9667 -88.5023 270° West  Level FlightAware Approximate
Sat 06:32:50 PM 41.9833 -88.2686 275° West 283 326 11,600  Level Chicago Center
Sat 06:33:00 PM 41.9668 -88.6528 270° West  Level FlightAware Approximate
Sat 06:33:51 PM 42.0003 -88.3800 282° West 306 352 14,100  Level Chicago Center
Sat 06:34:00 PM 41.9667 -88.8034 270° West  Level FlightAware Approximate
Sat 06:34:53 PM 42.0186 -88.4906 283° West 308 354 17,500  Level Chicago Center
Sat 06:35:54 PM 42.0400 -88.6025 284° West 310 357 19,300 2,049 Climbing Chicago Center
Sat 06:36:56 PM 42.0631 -88.7481 282° West 334 384 21,700 2,049 Climbing Chicago Center
Sat 06:37:57 PM 42.0744 -88.8656 277° West 342 394 23,500 1,756 Climbing Chicago Center
Sat 06:38:59 PM 42.0767 -88.9958 271° West 346 398 25,300 2,146 Climbing Chicago Center
Sat 06:40:00 PM 42.0731 -89.1272 268° West 349 402 27,900 1,672 Climbing Chicago Center
Sat 06:41:01 PM 42.0794 -89.2742 273° West 344 396 28,700 780 Climbing Chicago Center
Sat 06:42:03 PM 42.0856 -89.4133 273° West 367 422 29,500 780 Climbing Chicago Center
Sat 06:43:04 PM 42.0919 -89.5561 273° West 381 438 30,300 780 Climbing Chicago Center
Sat 06:44:06 PM 42.0994 -89.7050 274° West 393 452 31,100 878 Climbing Chicago Center
Sat 06:45:07 PM 42.1075 -89.8536 274° West 396 456 32,100 1,279 Climbing Chicago Center
Sat 06:46:08 PM 42.1147 -89.9972 274° West 390 449 33,700 1,268 Climbing Chicago Center
Sat 06:47:10 PM 42.1197 -90.1392 273° West 383 441 34,700 780 Climbing Chicago Center
Sat 06:48:11 PM 42.1269 -90.2831 274° West 388 447 35,300 585 Climbing Chicago Center
Sat 06:49:13 PM 42.1406 -90.4278 277° West 393 452 35,900 878 Climbing Chicago Center
Sat 06:50:14 PM 42.1544 -90.6036 276° West 397 457 37,100 836 Climbing Chicago Center
Sat 06:51:15 PM 42.1647 -90.7478 276° West 392 451 37,600 390 Climbing Chicago Center
Sat 06:52:17 PM 42.1756 -90.8944 276° West 396 456 37,900 195 Climbing Chicago Center
Sat 06:53:18 PM 42.1847 -91.0428 275° West 398 458 38,000 98 Climbing Chicago Center
Sat 06:54:20 PM 42.1953 -91.1897 276° West 397 457 38,100  Climbing Chicago Center
Sat 06:55:21 PM 42.2061 -91.3350 276° West 393 452 38,000  Descending Chicago Center
Sat 06:56:22 PM 42.2153 -91.4831 275° West 396 456 38,100  Climbing Chicago Center
Sat 06:57:24 PM 42.2256 -91.6322 275° West 400 460 38,000 -49 Descending Chicago Center
Sat 06:58:25 PM 42.2353 -91.7797 275° West 396 456 38,000 49 Level Chicago Center
Sat 06:59:26 PM 42.2464 -91.9589 275° West 400 460 38,100 49 Climbing Chicago Center
Sat 07:00:28 PM 42.2558 -92.1081 275° West 400 460 38,100  Level Chicago Center
Sat 07:00:56 PM 42.2597 -92.1689 275° West 400 460 38,100  Level Minneapolis Center
Sat 07:01:58 PM 42.2686 -92.3175 275° West 400 460 38,100 -49 Level Minneapolis Center
Sat 07:02:59 PM 42.2772 -92.4692 274° West 403 464 38,000  Descending Minneapolis Center
Sat 07:04:00 PM 42.2858 -92.6197 274° West 404 465 38,100 49 Climbing Minneapolis Center
Sat 07:05:02 PM 42.2964 -92.7997 275° West 404 465 38,100  Level Minneapolis Center
Sat 07:06:03 PM 42.3033 -92.9492 274° West 404 465 38,100 -49 Level Minneapolis Center
Sat 07:07:05 PM 42.3125 -93.1003 275° West 407 468 38,000  Descending Minneapolis Center
Sat 07:08:06 PM 42.3197 -93.2217 275° West 408 470 38,100 49 Climbing Minneapolis Center
Sat 07:09:08 PM 42.3297 -93.4036 274° West 408 470 38,100  Level Minneapolis Center
Sat 07:10:09 PM 42.3358 -93.5519 273° West 404 465 38,100  Level Minneapolis Center
Sat 07:11:10 PM 42.3419 -93.7017 273° West 404 465 38,100  Level Minneapolis Center
Sat 07:12:12 PM 42.3514 -93.8808 274° West 403 464 38,100  Level Minneapolis Center
Sat 07:13:13 PM 42.3569 -94.0292 273° West 400 460 38,100  Level Minneapolis Center
Sat 07:14:15 PM 42.3636 -94.1786 274° West 400 460 38,100  Level Minneapolis Center
Sat 07:15:16 PM 42.3717 -94.3436 274° West 404 465 38,100  Level Minneapolis Center
Sat 07:16:17 PM 42.3781 -94.4958 273° West 406 467 38,100  Level Minneapolis Center
Sat 07:17:19 PM 42.3836 -94.6458 273° West 403 464 38,100  Level Minneapolis Center
Sat 07:18:20 PM 42.3897 -94.7964 273° West 403 464 38,100  Level Minneapolis Center
Sat 07:19:22 PM 42.3950 -94.9469 273° West 403 464 38,100  Level Minneapolis Center
Sat 07:20:23 PM 42.4003 -95.0969 273° West 401 461 38,100  Level Minneapolis Center
Sat 07:21:24 PM 42.4056 -95.2475 273° West 402 463 38,100  Level Minneapolis Center
Sat 07:22:26 PM 42.4111 -95.3992 273° West 404 465 38,100  Level Minneapolis Center
Sat 07:23:27 PM 42.4158 -95.5797 272° West 402 463 38,100  Level Minneapolis Center
Sat 07:24:28 PM 42.4214 -95.7308 273° West 402 463 38,100  Level Minneapolis Center
Sat 07:25:30 PM 42.4250 -95.8814 272° West 403 464 38,100  Level Minneapolis Center
Sat 07:26:31 PM 42.4297 -96.0331 272° West 405 466 38,100  Level Minneapolis Center
Sat 07:27:32 PM 42.4333 -96.1858 272° West 408 470 38,100 -49 Level Minneapolis Center
Sat 07:28:34 PM 42.4375 -96.3386 272° West 408 470 38,000  Descending Minneapolis Center
Sat 07:29:35 PM 42.4408 -96.4911 272° West 408 470 38,100 49 Climbing Minneapolis Center
Sat 07:30:36 PM 42.4447 -96.6461 272° West 410 472 38,100  Level Minneapolis Center
Sat 07:31:37 PM 42.4483 -96.8303 272° West 411 473 38,100  Level Minneapolis Center
Sat 07:32:39 PM 42.4508 -96.9817 271° West 407 468 38,100  Level Minneapolis Center
Sat 07:33:40 PM 42.4539 -97.1344 272° West 405 466 38,100  Level Minneapolis Center
Sat 07:34:41 PM 42.4567 -97.2856 271° West 404 465 38,100  Level Minneapolis Center
Sat 07:35:42 PM 42.4592 -97.4372 271° West 406 467 38,100  Level Minneapolis Center
Sat 07:36:43 PM 42.4606 -97.5883 271° West 404 465 38,100  Level Minneapolis Center
Sat 07:37:45 PM 42.4633 -97.7392 271° West 402 463 38,100  Level Minneapolis Center
Sat 07:38:46 PM 42.4644 -97.8883 271° West 398 458 38,100 -49 Level Minneapolis Center
Sat 07:39:47 PM 42.4656 -98.0356 271° West 394 453 38,000  Descending Minneapolis Center
Sat 07:40:48 PM 42.4678 -98.1842 271° West 394 453 38,100  Climbing Minneapolis Center
Sat 07:41:49 PM 42.4678 -98.3303 270° West 393 452 38,000  Descending Minneapolis Center
Sat 07:42:51 PM 42.4686 -98.5092 270° West 395 455 38,100 49 Climbing Minneapolis Center
Sat 07:43:52 PM 42.4700 -98.6606 271° West 399 459 38,100 -49 Level Minneapolis Center
Sat 07:44:53 PM 42.4578 -98.8133 264° West 409 471 38,000  Descending Minneapolis Center
Sat 07:45:54 PM 42.4431 -98.9672 263° West 413 475 38,100 49 Climbing Minneapolis Center
Sat 07:46:55 PM 42.4272 -99.1206 262° West 413 475 38,100  Level Minneapolis Center
Sat 07:47:57 PM 42.4117 -99.2744 262° West 414 476 38,100  Level Minneapolis Center
Sat 07:48:58 PM 42.3956 -99.4286 262° West 414 476 38,100  Level Minneapolis Center
Sat 07:49:29 PM 42.3853 -99.5236 262° West 417 480 38,100  Level Denver Center
Sat 07:50:30 PM 42.3672 -99.6917 262° West 417 480 38,100  Level Denver Center
Sat 07:51:32 PM 42.3508 -99.8367 261° West 412 474 38,100  Level Denver Center
Sat 07:52:33 PM 42.3353 -99.9847 262° West 415 478 38,100  Level Denver Center
Sat 07:53:35 PM 42.3169 -100.1550 262° West 413 475 38,100  Level Denver Center
Sat 07:54:36 PM 42.3003 -100.2992 261° West 410 472 38,100  Level Denver Center
Sat 07:55:37 PM 42.2803 -100.4686 261° West 410 472 38,100  Level Denver Center
Sat 07:56:39 PM 42.2644 -100.6161 262° West 415 478 38,100  Level Denver Center
Sat 07:57:40 PM 42.2469 -100.7628 261° West 415 478 38,100  Level Denver Center
Sat 07:58:41 PM 42.2264 -100.9328 261° West 413 475 38,100  Level Denver Center
Sat 07:59:43 PM 42.2097 -101.0792 261° West 413 475 38,100  Level Denver Center
Sat 08:00:44 PM 42.1894 -101.2503 261° West 415 478 38,100  Level Denver Center
Sat 08:01:45 PM 42.1711 -101.3972 260° West 417 480 38,100  Level Denver Center
Sat 08:02:46 PM 42.1556 -101.5178 260° West 412 474 38,100  Level Denver Center
Sat 08:03:48 PM 42.1322 -101.7108 261° West 408 470 38,100  Level Denver Center
Sat 08:04:49 PM 42.1128 -101.8569 260° West 412 474 38,100  Level Denver Center
Sat 08:05:51 PM 42.0919 -102.0244 261° West 407 468 38,100  Level Denver Center
Sat 08:06:52 PM 42.0725 -102.1692 260° West 410 472 38,100 -49 Level Denver Center
Sat 08:07:53 PM 42.0528 -102.3111 259° West 408 470 38,000  Descending Denver Center
Sat 08:08:54 PM 42.0308 -102.4792 260° West 408 470 38,100 49 Climbing Denver Center
Sat 08:09:56 PM 42.0117 -102.6236 260° West 409 471 38,100 -49 Level Denver Center
Sat 08:10:57 PM 41.9869 -102.7950 259° West 414 476 38,000 -49 Descending Denver Center
Sat 08:11:58 PM 41.9692 -102.9397 261° West 413 475 38,000 49 Level Denver Center
Sat 08:12:59 PM 41.9489 -103.0853 259° West 413 475 38,100  Climbing Denver Center
Sat 08:14:01 PM 41.9253 -103.2589 260° West 419 482 38,000 -49 Descending Denver Center
Sat 08:15:02 PM 41.9042 -103.4086 259° West 424 488 38,000 49 Level Denver Center
Sat 08:16:03 PM 41.8889 -103.5847 263° West 427 491 38,100 49 Climbing Denver Center
Sat 08:17:04 PM 41.8853 -103.7319 268° West 416 479 38,100  Level Denver Center
Sat 08:18:06 PM 41.8778 -103.8825 266° West 420 483 38,100  Level Denver Center
Sat 08:19:07 PM 41.8731 -104.0547 268° West 414 476 38,100 -49 Level Denver Center
Sat 08:20:08 PM 41.8697 -104.2014 268° West 411 473 38,000 -44 Descending Denver Center
Sat 08:21:22 PM 41.8625 -104.3511 266° West 417 480 38,000 44 Level Denver Center
Sat 08:22:23 PM 41.8553 -104.5514 267° West 420 483 38,100 49 Climbing Denver Center
Sat 08:23:24 PM 41.8497 -104.7022 267° West 422 486 38,100  Level Denver Center
Sat 08:24:26 PM 41.8411 -104.8800 266° West 428 493 38,100 -49 Level Denver Center
Sat 08:25:27 PM 41.8356 -105.0336 267° West 431 496 38,000 -49 Descending Denver Center
Sat 08:26:28 PM 41.8275 -105.1847 266° West 425 489 38,000  Level Denver Center
Sat 08:27:29 PM 41.8206 -105.3603 267° West 423 487 38,000 49 Level Denver Center
Sat 08:28:31 PM 41.8122 -105.5083 266° West 417 480 38,100 49 Climbing Denver Center
Sat 08:29:32 PM 41.8050 -105.6842 267° West 422 486 38,100  Level Denver Center
Sat 08:30:33 PM 41.7972 -105.8347 266° West 423 487 38,100  Level Denver Center
Sat 08:31:34 PM 41.7875 -105.9858 265° West 425 489 38,100 -49 Level Denver Center
Sat 08:32:35 PM 41.7803 -106.1642 267° West 427 491 38,000  Descending Denver Center
Sat 08:33:37 PM 41.7725 -106.3147 266° West 424 488 38,100  Climbing Denver Center
Sat 08:34:38 PM 41.7622 -106.4650 265° West 424 488 38,000 -49 Descending Denver Center
Sat 08:35:39 PM 41.7531 -106.6461 266° West 424 488 38,000 49 Level Denver Center
Sat 08:36:40 PM 41.7447 -106.7967 266° West 425 489 38,100  Climbing Denver Center
Sat 08:37:42 PM 41.7347 -106.9464 265° West 423 487 38,000  Descending Denver Center
Sat 08:38:43 PM 41.7250 -107.1233 266° West 426 490 38,100 49 Climbing Denver Center
Sat 08:39:44 PM 41.7153 -107.2756 265° West 430 495 38,100 -49 Level Denver Center
Sat 08:40:45 PM 41.7036 -107.4531 265° West 430 495 38,000  Descending Denver Center
Sat 08:41:46 PM 41.6931 -107.6047 265° West 429 494 38,100  Climbing Denver Center
Sat 08:42:48 PM 41.6836 -107.7558 265° West 427 491 38,000 -49 Descending Denver Center
Sat 08:43:49 PM 41.6719 -107.9300 265° West 424 488 38,000  Level Denver Center
Sat 08:44:50 PM 41.6611 -108.0819 265° West 429 494 38,000 49 Level Denver Center
Sat 08:45:51 PM 41.6497 -108.2317 264° West 425 489 38,100  Climbing Denver Center
Sat 08:46:53 PM 41.6369 -108.4069 264° West 425 489 38,000  Descending Denver Center
Sat 08:47:53 PM 41.6264 -108.5597 265° West 428 493 38,100  Climbing Salt Lake Center
Sat 08:48:54 PM 41.6128 -108.7358 264° West 430 495 38,000 -49 Descending Salt Lake Center
Sat 08:49:55 PM 41.6006 -108.8864 264° West 428 493 38,000 50 Level Salt Lake Center
Sat 08:50:55 PM 41.5903 -109.0356 265° West 427 491 38,100  Climbing Salt Lake Center
Sat 08:51:56 PM 41.5864 -109.2089 268° West 427 491 38,000 -49 Descending Salt Lake Center
Sat 08:52:57 PM 41.5811 -109.3569 267° West 423 487 38,000  Level Salt Lake Center
Sat 08:53:58 PM 41.5756 -109.5300 268° West 422 486 38,000  Level Salt Lake Center
Sat 08:54:58 PM 41.5708 -109.6794 268° West 421 484 38,000  Level Salt Lake Center
Sat 08:55:59 PM 41.5661 -109.8292 268° West 424 488 38,000  Level Salt Lake Center
Sat 08:57:00 PM 41.5597 -110.0072 267° West 430 495 38,000  Level Salt Lake Center
Sat 08:58:01 PM 41.5544 -110.1600 267° West 431 496 38,000  Level Salt Lake Center
Sat 08:59:01 PM 41.5483 -110.3150 267° West 436 502 38,000  Level Salt Lake Center
Sat 09:00:02 PM 41.5419 -110.4967 267° West 440 506 38,000  Level Salt Lake Center
Sat 09:01:03 PM 41.5353 -110.6539 267° West 442 509 38,000  Level Salt Lake Center
Sat 09:02:04 PM 41.5286 -110.8100 267° West 441 507 38,000  Level Salt Lake Center
Sat 09:03:04 PM 41.5217 -110.9678 267° West 438 504 38,000  Level Salt Lake Center
Sat 09:04:05 PM 41.5144 -111.1289 267° West 438 504 38,000  Level Salt Lake Center
Sat 09:05:06 PM 41.5058 -111.3225 267° West 438 504 38,000  Level Salt Lake Center
Sat 09:06:07 PM 41.4994 -111.4844 267° West 441 507 38,000  Level Salt Lake Center
Sat 09:07:08 PM 41.4911 -111.6464 266° West 442 509 38,000  Level Salt Lake Center
Sat 09:08:08 PM 41.4828 -111.8089 266° West 444 511 38,000  Level Salt Lake Center
Sat 09:09:09 PM 41.4747 -111.9706 266° West 443 510 38,000  Level Salt Lake Center
Sat 09:10:10 PM 41.4656 -112.1333 266° West 444 511 38,000 49 Level Salt Lake Center
Sat 09:11:11 PM 41.4575 -112.2972 266° West 447 514 38,100  Climbing Salt Lake Center
Sat 09:12:12 PM 41.4481 -112.4619 266° West 449 517 38,000 -50 Descending Salt Lake Center
Sat 09:13:12 PM 41.4394 -112.6261 266° West 448 516 38,000  Level Salt Lake Center
Sat 09:14:13 PM 41.4286 -112.7897 265° West 446 513 38,000 49 Level Salt Lake Center
Sat 09:15:14 PM 41.4189 -112.9550 266° West 449 517 38,100  Climbing Salt Lake Center
Sat 09:16:15 PM 41.4072 -113.1514 266° West 446 513 38,000 -49 Descending Salt Lake Center
Sat 09:17:16 PM 41.3753 -113.3153 255° West 457 526 38,000  Level Salt Lake Center
Sat 09:18:16 PM 41.3397 -113.4764 254° West 457 526 38,000  Level Salt Lake Center
Sat 09:19:17 PM 41.3061 -113.6364 254° West 452 520 38,000 49 Level Salt Lake Center
Sat 09:20:18 PM 41.2725 -113.7967 254° West 452 520 38,100 49 Climbing Salt Lake Center
Sat 09:21:19 PM 41.2381 -113.9564 254° West 451 519 38,100 -49 Level Salt Lake Center
Sat 09:22:20 PM 41.2031 -114.1139 254° West 448 516 38,000 -49 Descending Salt Lake Center
Sat 09:23:21 PM 41.1686 -114.2722 254° West 448 516 38,000  Level Salt Lake Center
Sat 09:24:22 PM 41.1350 -114.4283 254° West 444 511 38,000  Level Salt Lake Center
Sat 09:25:23 PM 41.0994 -114.5847 253° West 444 511 38,000 49 Level Salt Lake Center
Sat 09:26:24 PM 41.0642 -114.7394 253° West 442 509 38,100  Climbing Salt Lake Center
Sat 09:27:25 PM 41.0253 -114.9142 254° West 442 509 38,000  Descending Salt Lake Center
Sat 09:28:25 PM 40.9906 -115.0614 253° West 439 505 38,100  Climbing Salt Lake Center
Sat 09:29:26 PM 40.9508 -115.2336 253° West 439 505 38,000 -49 Descending Salt Lake Center
Sat 09:30:27 PM 40.9169 -115.3814 253° West 438 504 38,000  Level Salt Lake Center
Sat 09:31:28 PM 40.8833 -115.5275 253° West 436 502 38,000  Level Salt Lake Center
Sat 09:32:29 PM 40.8442 -115.6978 253° West 435 501 38,000  Level Salt Lake Center
Sat 09:33:30 PM 40.8100 -115.8419 253° West 432 497 38,000  Level Salt Lake Center
Sat 09:34:31 PM 40.7769 -115.9867 253° West 431 496 38,000 49 Level Salt Lake Center
Sat 09:35:32 PM 40.7347 -116.1550 252° West 433 498 38,100  Climbing Salt Lake Center
Sat 09:36:33 PM 40.7011 -116.3008 253° West 434 499 38,000 -49 Descending Salt Lake Center
Sat 09:37:34 PM 40.6664 -116.4453 252° West 434 499 38,000 49 Level Salt Lake Center
Sat 09:38:35 PM 40.6258 -116.6133 252° West 434 499 38,100  Climbing Salt Lake Center
Sat 09:39:36 PM 40.5900 -116.7583 252° West 437 503 38,000 -50 Descending Salt Lake Center
Sat 09:40:36 PM 40.5494 -116.9253 252° West 437 503 38,000 50 Level Salt Lake Center
Sat 09:41:37 PM 40.5142 -117.0694 252° West 440 506 38,100  Climbing Salt Lake Center
Sat 09:42:38 PM 40.4772 -117.2136 251° West 440 506 38,000 -148 Descending Salt Lake Center
Sat 09:43:39 PM 40.4356 -117.3794 252° West 434 499 37,800 -590 Descending Salt Lake Center
Sat 09:44:40 PM 40.3994 -117.5208 252° West 428 493 36,800 -984 Descending Salt Lake Center
Sat 09:45:41 PM 40.3561 -117.6872 251° West 432 497 35,800 -934 Descending Salt Lake Center
Sat 09:46:42 PM 40.3206 -117.8319 252° West 437 503 34,900 -900 Descending Salt Lake Center
Sat 09:47:01 PM 40.3086 -117.8789 252° West 436 502 34,600 -975 Descending Oakland Center
Sat 09:48:02 PM 40.2700 -118.0286 251° West 440 506 33,600 -934 Descending Oakland Center
Sat 09:49:03 PM 40.2292 -118.1817 251° West 448 516 32,700 -1,426 Descending Oakland Center
Sat 09:50:04 PM 40.1883 -118.3369 251° West 450 518 30,700 -2,311 Descending Oakland Center
Sat 09:51:05 PM 40.1481 -118.4917 251° West 449 517 28,000 -2,579 Descending Oakland Center
Sat 09:52:05 PM 40.1117 -118.6458 253° West 447 514 25,500 -2,727 Descending Oakland Center
Sat 09:53:06 PM 40.0783 -118.8281 257° West 434 499 22,500 -2,656 Descending Oakland Center
Sat 09:54:07 PM 40.0492 -118.9742 255° West 420 483 20,100 -2,311 Descending Oakland Center
Sat 09:55:08 PM 40.0197 -119.1167 255° West 411 473 17,800 -1,623 Descending Oakland Center
Sat 09:56:09 PM 39.9939 -119.2506 256° West 385 443 16,800 -1,289 Descending Oakland Center
Sat 09:57:09 PM 39.9683 -119.3717 255° West 353 406 15,200 -1,686 Descending Oakland Center
Sat 09:58:10 PM 39.9428 -119.4844 254° West 332 382 13,400 -1,967 Descending Oakland Center
Sat 09:59:11 PM 39.8914 -119.5789 235° Southwest 321 369 11,200 -1,918 Descending Oakland Center
Sat 10:00:12 PM 39.8406 -119.6717 235° Southwest 318 366 9,500 -1,033 Descending Oakland Center
Sat 10:01:13 PM 39.7997 -119.7433 233° Southwest 295 339 9,100 -393 Descending Oakland Center

Login

Don't have an account? Register now (free) for customized features, flight alerts, and more!